createdAt,value
2022-10-26T00:00:38.480Z,8.10
2022-10-26T00:03:26.414Z,8.30
2022-10-26T00:06:16.332Z,8.27
2022-10-26T00:09:04.406Z,8.33
2022-10-26T00:11:53.258Z,8.43
2022-10-26T00:14:40.990Z,8.73
2022-10-26T00:17:30.383Z,7.73
2022-10-26T00:20:18.281Z,8.43
2022-10-26T00:23:05.887Z,7.87
2022-10-26T00:25:56.589Z,7.40
2022-10-26T00:28:44.416Z,7.70
2022-10-26T00:31:32.710Z,7.90
2022-10-26T00:34:21.892Z,6.67
2022-10-26T00:37:09.740Z,8.80
2022-10-26T00:39:57.329Z,8.80
2022-10-26T00:42:45.264Z,7.93
2022-10-26T00:45:33.424Z,8.67
2022-10-26T00:48:27.274Z,10.13
2022-10-26T00:51:23.308Z,8.90
2022-10-26T00:54:14.038Z,9.27
2022-10-26T00:57:01.892Z,8.87
2022-10-26T00:59:50.047Z,8.37
2022-10-26T01:02:37.945Z,8.43
2022-10-26T01:05:26.096Z,8.20
2022-10-26T01:08:16.995Z,8.20
2022-10-26T01:11:05.649Z,7.93
2022-10-26T01:13:55.983Z,10.60
2022-10-26T01:16:57.379Z,10.27
2022-10-26T01:20:20.373Z,10.60
2022-10-26T01:23:13.747Z,8.87
2022-10-26T01:26:19.296Z,9.87
2022-10-26T01:29:27.270Z,9.20
2022-10-26T01:32:24.646Z,9.33
2022-10-26T01:35:17.491Z,9.83
2022-10-26T01:38:09.735Z,9.20
2022-10-26T01:41:05.100Z,10.13
2022-10-26T01:43:56.781Z,8.17
2022-10-26T01:46:48.601Z,9.50
2022-10-26T01:49:42.643Z,9.27
2022-10-26T01:52:30.418Z,9.83
2022-10-26T01:55:52.273Z,9.23
2022-10-26T01:59:05.406Z,9.40
2022-10-26T02:02:22.609Z,8.63
2022-10-26T02:05:23.600Z,8.67
2022-10-26T02:08:43.111Z,9.30
2022-10-26T02:11:39.809Z,9.33
2022-10-26T02:14:37.966Z,8.77
2022-10-26T02:17:30.010Z,8.27
2022-10-26T02:20:24.011Z,7.93
2022-10-26T02:23:13.502Z,9.10
2022-10-26T02:26:02.538Z,8.80
2022-10-26T02:28:52.262Z,8.13
2022-10-26T02:31:43.040Z,8.27
2022-10-26T02:34:33.547Z,8.00
2022-10-26T02:37:24.302Z,8.37
2022-10-26T02:40:16.168Z,9.37
2022-10-26T02:43:08.165Z,10.33
2022-10-26T02:46:00.894Z,8.57
2022-10-26T02:48:48.984Z,9.83
2022-10-26T02:51:42.588Z,9.60
2022-10-26T02:54:43.282Z,9.00
2022-10-26T02:57:39.728Z,8.43
2022-10-26T03:00:28.032Z,8.40
2022-10-26T03:03:16.882Z,8.63
2022-10-26T03:06:04.732Z,9.33
2022-10-26T03:08:53.317Z,8.67
2022-10-26T03:11:42.297Z,8.33
2022-10-26T03:14:30.161Z,8.90
2022-10-26T03:17:17.706Z,8.40
2022-10-26T03:20:06.101Z,8.37
2022-10-26T03:22:53.696Z,8.13
2022-10-26T03:25:41.468Z,8.17
2022-10-26T03:28:30.676Z,9.53
2022-10-26T03:31:18.363Z,8.30
2022-10-26T03:34:06.113Z,8.67
2022-10-26T03:36:53.474Z,8.53
2022-10-26T03:39:41.367Z,8.70
2022-10-26T03:42:28.928Z,8.70
2022-10-26T03:45:18.308Z,8.60
2022-10-26T03:48:06.687Z,10.07
2022-10-26T06:48:01.688Z,34.63
2022-10-26T06:50:53.885Z,35.90
2022-10-26T06:53:46.112Z,34.27
2022-10-26T06:56:36.141Z,30.53
2022-10-26T06:59:33.748Z,30.53
2022-10-26T07:02:21.788Z,27.17
2022-10-26T07:05:12.967Z,28.23
2022-10-26T07:08:04.075Z,29.10
2022-10-26T07:10:52.008Z,33.83
2022-10-26T07:13:39.843Z,43.83
2022-10-26T07:16:28.013Z,34.33
2022-10-26T07:19:15.540Z,29.93
2022-10-26T07:22:03.519Z,27.67
2022-10-26T07:24:53.371Z,27.77
2022-10-26T07:27:41.389Z,24.00
2022-10-26T07:30:30.669Z,25.13
2022-10-26T07:33:19.484Z,26.20
2022-10-26T07:36:08.705Z,27.60
2022-10-26T07:38:56.460Z,27.42
2022-10-26T07:41:46.812Z,24.33
2022-10-26T07:44:34.288Z,24.77
2022-10-26T07:47:22.028Z,24.85
2022-10-26T07:50:12.053Z,26.02
2022-10-26T07:53:00.256Z,24.33
2022-10-26T07:55:54.488Z,24.23
2022-10-26T07:58:43.666Z,25.20
2022-10-26T08:01:34.792Z,24.13
2022-10-26T08:04:22.508Z,26.67
2022-10-26T08:07:10.514Z,22.02
2022-10-26T08:09:58.250Z,21.73
2022-10-26T08:12:46.018Z,23.60
2022-10-26T08:15:35.106Z,21.38
2022-10-26T08:18:23.069Z,19.02
2022-10-26T08:21:15.607Z,20.85
2022-10-26T08:24:09.364Z,20.15
2022-10-26T08:26:57.127Z,17.63
2022-10-26T08:29:45.025Z,18.08
2022-10-26T08:32:34.117Z,17.48
2022-10-26T08:35:21.809Z,16.83
2022-10-26T08:38:09.410Z,14.13
2022-10-26T08:40:58.715Z,14.73
2022-10-26T08:43:53.429Z,12.77
2022-10-26T08:46:45.693Z,12.30
2022-10-26T08:49:43.201Z,12.30
2022-10-26T08:52:42.916Z,12.35
2022-10-26T08:55:36.047Z,10.68
2022-10-26T08:58:29.183Z,10.10
2022-10-26T09:35:44.707Z,10.60
2022-10-26T09:38:34.500Z,10.93
2022-10-26T09:47:22.248Z,10.93
2022-10-26T09:50:21.701Z,12.45
2022-10-26T10:24:28.167Z,11.57
2022-10-26T10:27:19.576Z,12.02
2022-10-26T10:30:23.596Z,10.38
2022-10-26T10:36:01.923Z,7.95
2022-10-26T10:38:51.045Z,7.93
2022-10-26T10:41:39.433Z,7.85
2022-10-26T10:44:31.474Z,6.50
2022-10-26T10:47:25.359Z,7.65
2022-10-26T10:50:20.472Z,6.65
2022-10-26T10:53:19.416Z,5.93
2022-10-26T10:56:23.232Z,6.00
2022-10-26T10:59:35.287Z,5.65
2022-10-26T11:02:53.529Z,6.35
2022-10-26T11:06:05.711Z,6.15
2022-10-26T11:08:58.287Z,6.78
2022-10-26T11:11:49.704Z,5.78
2022-10-26T11:14:40.198Z,5.13
2022-10-26T11:17:32.923Z,4.72
2022-10-26T11:20:24.299Z,3.80
2022-10-26T11:23:21.099Z,4.13
2022-10-26T11:26:15.046Z,4.53
2022-10-26T11:29:08.283Z,3.15
2022-10-26T11:32:03.087Z,3.55
2022-10-26T11:34:56.851Z,2.90
2022-10-26T11:37:51.014Z,3.53
2022-10-26T11:40:46.586Z,3.17
2022-10-26T11:43:39.456Z,3.03
2022-10-26T11:46:33.411Z,3.10
2022-10-26T11:49:28.443Z,3.17
2022-10-26T11:52:22.180Z,2.90
2022-10-26T11:55:12.454Z,2.97
2022-10-26T11:58:02.967Z,2.70
2022-10-26T12:00:57.768Z,2.58
2022-10-26T12:03:49.493Z,2.95
2022-10-26T12:06:37.259Z,2.80
2022-10-26T12:09:32.154Z,2.42
2022-10-26T12:12:28.126Z,2.70
2022-10-26T12:15:30.930Z,2.47
2022-10-26T12:18:54.377Z,2.45
2022-10-26T12:21:44.297Z,2.78
2022-10-26T12:24:35.577Z,2.25
2022-10-26T12:27:34.012Z,2.22
2022-10-26T12:30:31.499Z,2.25
2022-10-26T12:33:30.336Z,2.03
2022-10-26T12:36:48.542Z,1.65
2022-10-26T12:39:37.448Z,1.95
2022-10-26T12:42:31.892Z,1.98
2022-10-26T12:45:21.696Z,2.40
2022-10-26T12:48:38.887Z,1.80
2022-10-26T12:51:45.093Z,1.77
2022-10-26T12:54:44.982Z,2.05
2022-10-26T12:57:39.396Z,1.60
2022-10-26T13:00:29.103Z,1.63
2022-10-26T13:03:29.772Z,1.77
2022-10-26T13:06:38.647Z,1.90
2022-10-26T13:09:30.752Z,1.70
2022-10-26T13:12:18.400Z,1.60
2022-10-26T13:15:19.694Z,1.65
2022-10-26T13:18:11.968Z,1.42
2022-10-26T13:21:09.040Z,1.45
2022-10-26T13:24:05.556Z,1.38
2022-10-26T13:27:26.616Z,1.35
2022-10-26T13:30:37.037Z,1.80
2022-10-26T13:33:34.078Z,1.48
2022-10-26T13:36:32.810Z,1.90
2022-10-26T13:39:24.595Z,1.50
2022-10-26T13:42:17.154Z,1.80
2022-10-26T13:45:10.296Z,1.65
2022-10-26T13:48:06.121Z,2.00
2022-10-26T13:53:53.675Z,1.58
2022-10-26T13:56:49.738Z,1.30
2022-10-26T13:59:42.911Z,1.33
2022-10-26T14:02:31.534Z,1.50
2022-10-26T14:05:20.240Z,1.63
2022-10-26T14:08:07.771Z,1.48
2022-10-26T14:10:59.275Z,1.55
2022-10-26T14:13:48.181Z,1.67
2022-10-26T14:16:36.570Z,1.52
2022-10-26T14:19:27.317Z,1.30
2022-10-26T14:22:23.141Z,1.73
2022-10-26T14:25:26.726Z,1.45
2022-10-26T14:28:27.548Z,1.60
2022-10-26T14:31:22.041Z,1.30
2022-10-26T14:34:13.494Z,1.80
2022-10-26T14:37:04.309Z,1.55
2022-10-26T14:39:52.479Z,1.40
2022-10-26T14:42:44.765Z,1.80
2022-10-26T14:45:48.423Z,1.50
2022-10-26T14:48:37.294Z,1.23
2022-10-26T14:51:28.758Z,1.42
2022-10-26T14:54:25.024Z,1.75
2022-10-26T14:57:32.550Z,1.63
2022-10-26T15:00:22.865Z,1.40
2022-10-26T15:03:17.450Z,1.40
2022-10-26T15:06:47.251Z,1.20
2022-10-26T15:09:40.831Z,1.50
2022-10-26T15:12:32.733Z,1.50
2022-10-26T15:18:22.110Z,1.80
2022-10-26T15:21:24.045Z,2.20
2022-10-26T15:33:22.385Z,1.88
2022-10-26T15:36:17.459Z,2.15
2022-10-26T15:39:05.453Z,2.30
2022-10-26T15:41:53.730Z,10.70
2022-10-26T15:44:41.412Z,10.68
2022-10-26T15:47:33.324Z,10.27
2022-10-26T15:50:24.510Z,13.20
2022-10-26T15:53:20.220Z,12.45
2022-10-26T15:56:15.910Z,14.88
2022-10-26T16:01:52.982Z,18.83
2022-10-26T16:04:40.712Z,17.60
2022-10-26T16:07:29.743Z,19.00
2022-10-26T16:10:22.702Z,16.67
2022-10-26T16:13:14.055Z,15.88
2022-10-26T16:16:03.058Z,14.52
2022-10-26T16:19:06.088Z,12.10
2022-10-26T16:22:03.638Z,10.75
2022-10-26T16:24:52.915Z,10.18
2022-10-26T16:27:40.832Z,8.38
2022-10-26T16:30:31.293Z,6.43
2022-10-26T16:33:19.537Z,6.03
2022-10-26T16:36:08.453Z,4.22
2022-10-26T16:38:56.808Z,3.53
2022-10-26T16:41:45.665Z,3.80
2022-10-26T16:44:33.773Z,3.65
2022-10-26T16:50:14.812Z,3.28
2022-10-26T16:53:02.428Z,3.40
2022-10-26T16:55:50.234Z,3.42
2022-10-26T16:58:39.611Z,3.50
2022-10-26T17:01:27.696Z,3.35
2022-10-26T17:04:16.039Z,2.88
2022-10-26T17:07:03.837Z,2.85
2022-10-26T17:09:51.657Z,3.63
2022-10-26T17:12:39.369Z,3.33
2022-10-26T17:15:29.061Z,4.45
2022-10-26T17:18:17.569Z,4.30
2022-10-26T17:21:05.599Z,4.22
2022-10-26T17:23:53.196Z,4.40
2022-10-26T17:26:40.911Z,5.40
2022-10-26T17:29:29.140Z,5.38
2022-10-26T17:32:18.537Z,5.68
2022-10-26T17:35:07.576Z,5.13
2022-10-26T17:37:55.237Z,5.32
2022-10-26T17:40:43.250Z,4.93
2022-10-26T17:43:34.914Z,5.03
2022-10-26T17:46:24.490Z,5.47
2022-10-26T17:49:13.798Z,5.22
2022-10-26T17:52:01.742Z,5.68
2022-10-26T17:54:49.707Z,5.85
2022-10-26T17:57:37.541Z,6.07
2022-10-26T18:00:25.276Z,6.43
2022-10-26T18:03:13.213Z,6.53
2022-10-26T18:06:02.861Z,6.35
2022-10-26T18:08:50.751Z,5.88
2022-10-26T18:11:38.834Z,6.55
2022-10-26T18:14:26.620Z,6.63
2022-10-26T18:17:14.304Z,6.75
2022-10-26T18:20:01.941Z,7.25
2022-10-26T18:22:51.517Z,7.53
2022-10-26T18:25:39.583Z,6.47
2022-10-26T18:28:27.135Z,7.03
2022-10-26T18:31:17.190Z,7.28
2022-10-26T18:34:06.228Z,7.88
2022-10-26T18:36:55.311Z,7.55
2022-10-26T18:39:44.642Z,8.00
2022-10-26T18:42:32.247Z,8.75
2022-10-26T18:45:19.870Z,7.80
2022-10-26T18:48:07.732Z,8.15
2022-10-26T18:50:55.324Z,8.02
2022-10-26T18:53:44.644Z,8.10
2022-10-26T18:56:33.938Z,8.45
2022-10-26T18:59:21.520Z,7.18
2022-10-26T19:02:15.328Z,7.90
2022-10-26T19:05:03.352Z,8.57
2022-10-26T19:07:51.128Z,7.82
2022-10-26T19:10:38.710Z,7.00
2022-10-26T19:13:28.030Z,7.03
2022-10-26T19:16:33.574Z,6.63
2022-10-26T19:19:26.433Z,6.45
2022-10-26T19:22:14.329Z,7.00
2022-10-26T19:25:03.879Z,6.40
2022-10-26T19:27:55.526Z,6.68
2022-10-26T19:30:44.347Z,6.73
2022-10-26T19:33:32.238Z,6.27
2022-10-26T19:36:19.748Z,5.80
2022-10-26T19:39:07.896Z,5.82
2022-10-26T19:41:55.407Z,5.87
2022-10-26T19:44:43.284Z,5.67
2022-10-26T19:47:32.534Z,5.47
2022-10-26T19:50:20.173Z,5.60
2022-10-26T19:53:07.836Z,5.97
2022-10-26T19:55:58.257Z,6.43
2022-10-26T19:58:46.519Z,6.53
2022-10-26T20:01:35.019Z,5.87
2022-10-26T20:04:24.100Z,5.50
2022-10-26T20:07:12.066Z,5.77
2022-10-26T20:10:00.326Z,7.63
2022-10-26T20:12:48.341Z,9.77
2022-10-26T20:15:36.500Z,9.00
2022-10-26T23:15:18.546Z,16.93
2022-10-26T23:18:06.235Z,18.47
2022-10-26T23:20:53.870Z,17.93
2022-10-26T23:23:42.395Z,18.17
2022-10-26T23:26:32.488Z,17.17
2022-10-26T23:29:20.205Z,18.67
2022-10-26T23:32:07.647Z,17.17
2022-10-26T23:34:55.504Z,17.83
2022-10-26T23:37:43.439Z,17.60
2022-10-26T23:40:31.138Z,17.40
2022-10-26T23:43:20.558Z,16.90
2022-10-26T23:46:08.707Z,18.13
2022-10-26T23:48:56.262Z,18.23
2022-10-26T23:51:43.976Z,18.30
2022-10-26T23:54:31.848Z,17.97
2022-10-26T23:57:19.617Z,19.47
